createdAt,value
2018-04-23T00:00:10.054Z,1009.62
2018-04-23T00:01:18.893Z,1009.65
2018-04-23T00:02:27.737Z,1009.66
2018-04-23T00:03:36.849Z,1009.7
2018-04-23T00:04:45.686Z,1009.66
2018-04-23T00:05:54.525Z,1009.67
2018-04-23T00:07:03.359Z,1009.65
2018-04-23T00:08:12.192Z,1009.68
2018-04-23T00:09:21.307Z,1009.64
2018-04-23T00:10:30.143Z,1009.63
2018-04-23T00:11:38.981Z,1009.65
2018-04-23T00:12:48.090Z,1009.63
2018-04-23T00:13:56.930Z,1009.54
2018-04-23T00:15:05.765Z,1009.58
2018-04-23T00:16:14.599Z,1009.59
2018-04-23T00:17:23.436Z,1009.58
2018-04-23T00:18:32.270Z,1009.59
2018-04-23T00:19:41.107Z,1009.53
2018-04-23T00:20:49.943Z,1009.51
2018-04-23T00:21:58.774Z,1009.46
2018-04-23T00:23:07.648Z,1009.45
2018-04-23T00:24:16.441Z,1009.43
2018-04-23T00:25:25.274Z,1009.42
2018-04-23T00:26:34.109Z,1009.4
2018-04-23T00:27:43.220Z,1009.35
2018-04-23T00:28:52.054Z,1009.41
2018-04-23T00:30:00.889Z,1009.41
2018-04-23T00:31:09.720Z,1009.39
2018-04-23T00:32:18.554Z,1009.36
2018-04-23T00:33:27.671Z,1009.37
2018-04-23T00:34:36.505Z,1009.31
2018-04-23T00:35:45.337Z,1009.31
2018-04-23T00:36:54.169Z,1009.34
2018-04-23T00:38:03.006Z,1009.35
2018-04-23T00:39:11.845Z,1009.28
2018-04-23T00:40:20.946Z,1009.29
2018-04-23T00:41:29.782Z,1009.29
2018-04-23T00:42:38.620Z,1009.35
2018-04-23T00:43:47.464Z,1009.35
2018-04-23T00:44:56.293Z,1009.35
2018-04-23T00:46:05.676Z,1009.35
2018-04-23T00:47:14.787Z,1009.32
2018-04-23T00:48:23.622Z,1009.34
2018-04-23T00:49:32.457Z,1009.31
2018-04-23T00:50:41.292Z,1009.39
2018-04-23T00:51:50.128Z,1009.3
2018-04-23T00:52:59.244Z,1009.31
2018-04-23T00:54:08.357Z,1009.28
2018-04-23T00:55:17.193Z,1009.27
2018-04-23T00:56:26.583Z,1009.26
2018-04-23T00:57:35.420Z,1009.32
2018-04-23T00:58:44.535Z,1009.29
2018-04-23T00:59:53.371Z,1009.31
2018-04-23T01:01:02.206Z,1009.29
2018-04-23T01:02:11.043Z,1009.38
2018-04-23T01:03:19.879Z,1009.34
2018-04-23T01:04:28.717Z,1009.35
2018-04-23T01:05:37.825Z,1009.33
2018-04-23T01:06:46.661Z,1009.29
2018-04-23T01:07:55.777Z,1009.29
2018-04-23T01:09:04.613Z,1009.26
2018-04-23T01:10:13.450Z,1009.29
2018-04-23T01:11:22.285Z,1009.35
2018-04-23T01:12:31.121Z,1009.32
2018-04-23T01:13:39.951Z,1009.33
2018-04-23T01:14:49.335Z,1009.33
2018-04-23T01:15:58.172Z,1009.34
2018-04-23T01:17:07.285Z,1009.37
2018-04-23T01:18:16.122Z,1009.4
2018-04-23T01:19:24.957Z,1009.39
2018-04-23T01:20:33.792Z,1009.38
2018-04-23T01:21:43.181Z,1009.38
2018-04-23T01:22:52.015Z,1009.44
2018-04-23T01:24:00.850Z,1009.39
2018-04-23T01:25:09.685Z,1009.5
2018-04-23T01:26:18.797Z,1009.53
2018-04-23T01:27:27.631Z,1009.53
2018-04-23T01:28:36.466Z,1009.55
2018-04-23T01:29:45.301Z,1009.57
2018-04-23T01:30:54.406Z,1009.58
2018-04-23T01:32:03.241Z,1009.55
2018-04-23T01:33:12.076Z,1009.6
2018-04-23T01:34:20.913Z,1009.53
2018-04-23T01:35:29.753Z,1009.56
2018-04-23T01:36:39.182Z,1009.57
2018-04-23T01:37:48.020Z,1009.54
2018-04-23T01:38:56.858Z,1009.54
2018-04-23T01:40:05.687Z,1009.56
2018-04-23T01:41:14.529Z,1009.56
2018-04-23T01:42:23.922Z,1009.56
2018-04-23T01:43:32.758Z,1009.61
2018-04-23T01:44:41.594Z,1009.6
2018-04-23T01:45:50.433Z,1009.58
2018-04-23T01:46:59.264Z,1009.66
2018-04-23T01:48:08.099Z,1009.69
2018-04-23T01:49:16.934Z,1009.7
2018-04-23T01:50:25.769Z,1009.71
2018-04-23T01:51:34.599Z,1009.73
2018-04-23T01:52:43.434Z,1009.69
2018-04-23T01:53:52.543Z,1009.68
2018-04-23T01:55:01.377Z,1009.66
2018-04-23T01:56:10.489Z,1009.71
2018-04-23T01:57:19.330Z,1009.74
2018-04-23T01:58:28.171Z,1009.79
2018-04-23T01:59:37.285Z,1009.72
2018-04-23T02:00:46.118Z,1009.71
2018-04-23T02:01:54.951Z,1009.7
2018-04-23T02:03:04.066Z,1009.7
2018-04-23T02:04:12.903Z,1009.63
2018-04-23T02:05:21.737Z,1009.67
2018-04-23T02:06:30.857Z,1009.58
2018-04-23T02:07:39.971Z,1009.63
2018-04-23T02:08:48.808Z,1009.59
2018-04-23T02:09:57.920Z,1009.61
2018-04-23T02:11:07.031Z,1009.61
2018-04-23T02:12:15.865Z,1009.67
2018-04-23T02:13:24.701Z,1009.67
2018-04-23T02:14:33.808Z,1009.62
2018-04-23T02:15:42.649Z,1009.65
2018-04-23T02:16:51.762Z,1009.63
2018-04-23T02:18:00.602Z,1009.69
2018-04-23T02:19:09.723Z,1009.62
2018-04-23T02:20:18.559Z,1009.62
2018-04-23T02:21:27.398Z,1009.66
2018-04-23T02:22:36.234Z,1009.63
2018-04-23T02:23:45.073Z,1009.6
2018-04-23T02:24:53.900Z,1009.6
2018-04-23T02:26:02.735Z,1009.56
2018-04-23T02:27:11.569Z,1009.49
2018-04-23T02:28:20.465Z,1009.53
2018-04-23T02:29:29.576Z,1009.54
2018-04-23T02:30:38.963Z,1009.54
2018-04-23T02:31:48.074Z,1009.6
2018-04-23T02:32:56.911Z,1009.65
2018-04-23T02:34:06.024Z,1009.62
2018-04-23T02:35:15.139Z,1009.64
2018-04-23T02:36:24.806Z,1009.61
2018-04-23T02:37:33.926Z,1009.61
2018-04-23T02:38:42.778Z,1009.58
2018-04-23T02:39:51.890Z,1009.57
2018-04-23T02:41:00.733Z,1009.57
2018-04-23T02:42:09.846Z,1009.6
2018-04-23T02:43:19.251Z,1009.54
2018-04-23T02:44:28.649Z,1009.56
2018-04-23T02:45:37.636Z,1009.49
2018-04-23T02:46:46.750Z,1009.48
2018-04-23T02:47:55.857Z,1009.44
2018-04-23T02:49:04.977Z,1009.41
2018-04-23T02:50:14.087Z,1009.39
2018-04-23T02:51:22.928Z,1009.4
2018-04-23T02:52:31.764Z,1009.41
2018-04-23T02:53:40.875Z,1009.46
2018-04-23T02:54:49.718Z,1009.46
2018-04-23T02:55:58.548Z,1009.52
2018-04-23T02:57:07.386Z,1009.53
2018-04-23T02:58:17.058Z,1009.54
2018-04-23T02:59:26.721Z,1009.57
2018-04-23T03:00:35.567Z,1009.56
2018-04-23T03:01:44.955Z,1009.55
2018-04-23T03:02:54.063Z,1009.54
2018-04-23T03:04:03.189Z,1009.54
2018-04-23T03:05:12.581Z,1009.52
2018-04-23T03:06:22.528Z,1009.52
2018-04-23T03:07:31.363Z,1009.53
2018-04-23T03:08:40.757Z,1009.55
2018-04-23T03:09:49.592Z,1009.48
2018-04-23T03:10:58.427Z,1009.49
2018-04-23T03:12:07.813Z,1009.49
2018-04-23T03:13:17.472Z,1009.55
2018-04-23T03:14:26.584Z,1009.53
2018-04-23T03:15:35.420Z,1009.54
2018-04-23T03:16:44.255Z,1009.51
2018-04-23T03:17:53.089Z,1009.54
2018-04-23T03:19:01.925Z,1009.61
2018-04-23T03:20:10.753Z,1009.55
2018-04-23T03:21:19.587Z,1009.55
2018-04-23T03:22:28.421Z,1009.51
2018-04-23T03:23:37.254Z,1009.55
2018-04-23T03:24:46.090Z,1009.53
2018-04-23T03:25:54.929Z,1009.51
2018-04-23T03:27:03.765Z,1009.46
2018-04-23T03:28:12.602Z,1009.47
2018-04-23T03:29:21.439Z,1009.46
2018-04-23T03:30:30.279Z,1009.5
2018-04-23T03:31:39.943Z,1009.56
2018-04-23T03:32:49.332Z,1009.58
2018-04-23T03:33:58.441Z,1009.6
2018-04-23T03:35:07.278Z,1009.62
2018-04-23T03:36:16.392Z,1009.59
2018-04-23T03:37:25.221Z,1009.59
2018-04-23T03:38:34.335Z,1009.61
2018-04-23T03:39:43.167Z,1009.6
2018-04-23T03:40:52.002Z,1009.55
2018-04-23T03:42:01.116Z,1009.62
2018-04-23T03:43:10.223Z,1009.62
2018-04-23T03:44:19.331Z,1009.66
2018-04-23T03:45:28.176Z,1009.66
2018-04-23T03:46:37.008Z,1009.7
2018-04-23T03:47:45.839Z,1009.68
2018-04-23T03:48:54.676Z,1009.71
2018-04-23T03:50:03.510Z,1009.74
2018-04-23T03:51:12.351Z,1009.68
2018-04-23T03:52:21.185Z,1009.7
2018-04-23T03:53:30.020Z,1009.72
2018-04-23T03:54:38.853Z,1009.71
2018-04-23T03:55:47.960Z,1009.74
2018-04-23T03:56:56.796Z,1009.7
2018-04-23T03:58:05.908Z,1009.7
2018-04-23T03:59:14.744Z,1009.73
2018-04-23T04:00:23.581Z,1009.75
2018-04-23T04:01:32.695Z,1009.76
2018-04-23T04:02:41.804Z,1009.7
2018-04-23T04:03:50.638Z,1009.77
2018-04-23T04:04:59.749Z,1009.77
2018-04-23T04:06:08.584Z,1009.73
2018-04-23T04:07:17.418Z,1009.81
2018-04-23T04:08:26.255Z,1009.82
2018-04-23T04:09:35.093Z,1009.87
2018-04-23T04:10:44.201Z,1009.86
2018-04-23T04:11:53.335Z,1009.89
2018-04-23T04:13:02.171Z,1009.86
2018-04-23T04:14:11.011Z,1009.85
2018-04-23T04:15:20.118Z,1009.88
2018-04-23T04:16:28.953Z,1009.88
2018-04-23T04:17:37.787Z,1009.9
2018-04-23T04:18:46.620Z,1009.89
2018-04-23T04:19:55.459Z,1009.9
2018-04-23T04:21:04.293Z,1009.91
2018-04-23T04:22:13.406Z,1009.93
2018-04-23T04:23:22.241Z,1009.96
2018-04-23T04:24:31.076Z,1009.96
2018-04-23T04:25:40.192Z,1009.95
2018-04-23T04:26:49.024Z,1010.01
2018-04-23T04:27:57.855Z,1009.95
2018-04-23T04:29:06.692Z,1009.96
2018-04-23T04:30:15.805Z,1010.05
2018-04-23T04:31:24.639Z,1010.01
2018-04-23T04:32:33.475Z,1010.02
2018-04-23T04:33:42.312Z,1010
2018-04-23T04:34:51.149Z,1009.96
2018-04-23T04:35:59.979Z,1010
2018-04-23T04:37:09.096Z,1009.99
2018-04-23T04:38:17.981Z,1010
2018-04-23T04:39:27.382Z,1009.99
2018-04-23T04:40:36.492Z,1009.93
2018-04-23T04:41:45.881Z,1009.98
2018-04-23T04:42:54.718Z,1009.97
2018-04-23T04:44:03.833Z,1009.98
2018-04-23T04:45:12.669Z,1010.02
2018-04-23T04:46:21.782Z,1009.99
2018-04-23T04:47:31.042Z,1010.03
2018-04-23T04:48:39.876Z,1009.98
2018-04-23T04:49:48.716Z,1009.99
2018-04-23T04:50:57.820Z,1009.99
2018-04-23T04:52:06.658Z,1009.99
2018-04-23T04:53:15.494Z,1010.02
2018-04-23T04:54:24.333Z,1010.01
2018-04-23T04:55:33.169Z,1010.15
2018-04-23T04:56:42.055Z,1010.11
2018-04-23T04:57:51.166Z,1010.11
2018-04-23T04:59:00.006Z,1010.13
2018-04-23T05:00:09.110Z,1010.1
2018-04-23T05:01:17.945Z,1010.17
2018-04-23T05:02:26.784Z,1010.18
2018-04-23T05:03:35.895Z,1010.21
2018-04-23T05:04:44.734Z,1010.2
2018-04-23T05:05:53.867Z,1010.23
2018-04-23T05:07:02.998Z,1010.27
2018-04-23T05:08:11.834Z,1010.24
2018-04-23T05:09:20.669Z,1010.26
2018-04-23T05:10:29.506Z,1010.24
2018-04-23T05:11:38.341Z,1010.25
2018-04-23T05:12:47.454Z,1010.23
2018-04-23T05:13:56.308Z,1010.2
2018-04-23T05:15:05.321Z,1010.24
2018-04-23T05:16:14.177Z,1010.22
2018-04-23T05:17:23.055Z,1010.23
2018-04-23T05:18:31.890Z,1010.18
2018-04-23T05:19:40.728Z,1010.2
2018-04-23T05:20:49.564Z,1010.22
2018-04-23T05:21:58.400Z,1010.33
2018-04-23T05:23:07.237Z,1010.36
2018-04-23T05:24:16.073Z,1010.42
2018-04-23T05:25:24.907Z,1010.39
2018-04-23T05:26:33.746Z,1010.44
2018-04-23T05:27:42.858Z,1010.47
2018-04-23T05:28:51.972Z,1010.52
2018-04-23T05:30:01.106Z,1010.54
2018-04-23T05:31:10.508Z,1010.55
2018-04-23T05:32:19.893Z,1010.6
2018-04-23T05:33:29.003Z,1010.6
2018-04-23T05:34:37.889Z,1010.58
2018-04-23T05:35:46.730Z,1010.58
2018-04-23T05:36:55.564Z,1010.59
2018-04-23T05:38:05.226Z,1010.62
2018-04-23T05:39:14.063Z,1010.65
2018-04-23T05:40:22.901Z,1010.69
2018-04-23T05:41:32.008Z,1010.72
2018-04-23T05:42:40.843Z,1010.7
2018-04-23T05:43:49.678Z,1010.76
2018-04-23T05:44:58.795Z,1010.78
2018-04-23T05:46:07.630Z,1010.75
2018-04-23T05:47:16.741Z,1010.81
2018-04-23T05:48:25.578Z,1010.84
2018-04-23T05:49:34.414Z,1010.85
2018-04-23T05:50:43.797Z,1010.88
2018-04-23T05:51:52.682Z,1010.91
2018-04-23T05:53:01.791Z,1010.87
2018-04-23T05:54:10.625Z,1010.85
2018-04-23T05:55:19.735Z,1010.9
2018-04-23T05:56:28.571Z,1010.95
2018-04-23T05:57:37.690Z,1010.94
2018-04-23T05:58:46.522Z,1010.94
2018-04-23T05:59:55.357Z,1010.98
2018-04-23T06:01:04.228Z,1010.98
2018-04-23T06:02:13.355Z,1010.99
2018-04-23T06:03:22.188Z,1010.95
2018-04-23T06:04:31.024Z,1011.02
2018-04-23T06:05:39.858Z,1010.99
2018-04-23T06:06:48.972Z,1010.98
2018-04-23T06:07:58.080Z,1010.97
2018-04-23T06:09:06.919Z,1010.98
2018-04-23T06:10:15.755Z,1011.04
2018-04-23T06:11:24.595Z,1010.99
2018-04-23T06:12:33.705Z,1011.05
2018-04-23T06:13:42.539Z,1011.06
2018-04-23T06:14:51.376Z,1011.14
2018-04-23T06:16:00.214Z,1011.17
2018-04-23T06:17:09.048Z,1011.12
2018-04-23T06:18:17.883Z,1011.09
2018-04-23T06:19:26.720Z,1011.08
2018-04-23T06:20:35.653Z,1011.13
2018-04-23T06:21:44.489Z,1011.15
2018-04-23T06:22:53.327Z,1011.15
2018-04-23T06:24:02.163Z,1011.22
2018-04-23T06:25:11.003Z,1011.15
2018-04-23T06:26:20.214Z,1011.22
2018-04-23T06:27:29.062Z,1011.2
2018-04-23T06:28:37.896Z,1011.27
2018-04-23T06:29:46.731Z,1011.24
2018-04-23T06:30:55.581Z,1011.2
2018-04-23T06:32:04.697Z,1011.25
2018-04-23T06:33:13.534Z,1011.25
2018-04-23T06:34:22.386Z,1011.29
2018-04-23T06:35:31.776Z,1011.29
2018-04-23T06:36:40.619Z,1011.24
2018-04-23T06:37:49.460Z,1011.25
2018-04-23T06:38:58.294Z,1011.34
2018-04-23T06:40:07.130Z,1011.3
2018-04-23T06:41:15.966Z,1011.32
2018-04-23T06:42:24.900Z,1011.35
2018-04-23T06:43:33.732Z,1011.38
2018-04-23T06:44:42.568Z,1011.38
2018-04-23T06:45:51.407Z,1011.45
2018-04-23T06:47:00.235Z,1011.45
2018-04-23T06:48:41.128Z,1011.52
2018-04-23T06:49:49.965Z,1011.55
2018-04-23T06:50:58.800Z,1011.54
2018-04-23T06:52:07.911Z,1011.56
2018-04-23T06:53:17.075Z,1011.52
2018-04-23T06:54:25.909Z,1011.55
2018-04-23T06:55:35.022Z,1011.55
2018-04-23T06:56:44.144Z,1011.56
2018-04-23T06:57:53.241Z,1011.61
2018-04-23T06:59:02.189Z,1011.61
2018-04-23T07:00:10.963Z,1011.59
2018-04-23T07:01:19.800Z,1011.64
2018-04-23T07:02:28.637Z,1011.57
2018-04-23T07:03:37.472Z,1011.62
2018-04-23T07:04:46.311Z,1011.65
2018-04-23T07:05:55.872Z,1011.66
2018-04-23T07:07:04.710Z,1011.64
2018-04-23T07:08:13.547Z,1011.58
2018-04-23T07:09:22.661Z,1011.61
2018-04-23T07:10:31.653Z,1011.64
2018-04-23T07:11:40.433Z,1011.62
2018-04-23T07:12:49.269Z,1011.67
2018-04-23T07:13:58.102Z,1011.7
2018-04-23T07:15:06.942Z,1011.65
2018-04-23T07:16:15.780Z,1011.66
2018-04-23T07:17:24.892Z,1011.68
2018-04-23T07:18:33.727Z,1011.64
2018-04-23T07:19:42.565Z,1011.69
2018-04-23T07:20:51.695Z,1011.64
2018-04-23T07:22:00.684Z,1011.67
2018-04-23T07:23:09.517Z,1011.64
2018-04-23T07:24:18.354Z,1011.72
2018-04-23T07:25:27.192Z,1011.7
2018-04-23T07:26:36.307Z,1011.74
2018-04-23T07:27:45.239Z,1011.74
2018-04-23T07:28:54.077Z,1011.72
2018-04-23T07:30:02.913Z,1011.79
2018-04-23T07:31:11.751Z,1011.84
2018-04-23T07:32:20.587Z,1011.88
2018-04-23T07:33:29.627Z,1011.85
2018-04-23T07:34:38.736Z,1011.97
2018-04-23T07:35:47.572Z,1011.88
2018-04-23T07:36:56.409Z,1011.94
2018-04-23T07:38:05.520Z,1011.92
2018-04-23T07:39:14.460Z,1011.97
2018-04-23T07:40:23.301Z,1012.01
2018-04-23T07:41:32.138Z,1012
2018-04-23T07:42:40.974Z,1012
2018-04-23T07:43:49.812Z,1012.12
2018-04-23T07:44:58.848Z,1012.13
2018-04-23T07:46:07.688Z,1012.06
2018-04-23T07:47:16.796Z,1012.13
2018-04-23T07:48:25.634Z,1012.13
2018-04-23T07:49:34.469Z,1012.11
2018-04-23T07:50:43.356Z,1012.15
2018-04-23T07:51:52.190Z,1012.11
2018-04-23T07:53:01.026Z,1012.1
2018-04-23T07:54:09.935Z,1012.16
2018-04-23T07:55:18.694Z,1012.17
2018-04-23T07:56:28.161Z,1012.17
2018-04-23T07:57:36.999Z,1012.24
2018-04-23T07:58:45.835Z,1012.26
2018-04-23T07:59:54.675Z,1012.31
2018-04-23T08:01:03.508Z,1012.25
2018-04-23T08:02:12.498Z,1012.3
2018-04-23T08:03:21.334Z,1012.34
2018-04-23T08:04:30.170Z,1012.29
2018-04-23T08:05:39.284Z,1012.35
2018-04-23T08:06:48.405Z,1012.37
2018-04-23T08:07:57.335Z,1012.42
2018-04-23T08:09:06.454Z,1012.42
2018-04-23T08:10:15.290Z,1012.46
2018-04-23T08:11:24.400Z,1012.47
2018-04-23T08:12:33.230Z,1012.53
2018-04-23T08:13:42.164Z,1012.56
2018-04-23T08:14:51.002Z,1012.54
2018-04-23T08:15:59.841Z,1012.64
2018-04-23T08:17:08.674Z,1012.68
2018-04-23T08:18:17.795Z,1012.66
2018-04-23T08:19:27.010Z,1012.69
2018-04-23T08:20:35.847Z,1012.77
2018-04-23T08:21:44.968Z,1012.69
2018-04-23T08:22:53.791Z,1012.7
2018-04-23T08:24:02.634Z,1012.69
2018-04-23T08:25:11.520Z,1012.76
2018-04-23T08:26:20.360Z,1012.71
2018-04-23T08:27:29.195Z,1012.75
2018-04-23T08:28:38.038Z,1012.86
2018-04-23T08:29:46.870Z,1012.8
2018-04-23T08:30:55.757Z,1012.8
2018-04-23T08:32:04.869Z,1012.8
2018-04-23T08:33:13.708Z,1012.73
2018-04-23T08:34:22.819Z,1012.71
2018-04-23T08:35:31.682Z,1012.72
2018-04-23T08:36:40.792Z,1012.86
2018-04-23T08:37:49.906Z,1012.66
2018-04-23T08:38:58.744Z,1012.73
2018-04-23T08:40:07.582Z,1012.76
2018-04-23T08:41:16.420Z,1012.87
2018-04-23T08:42:25.360Z,1012.85
2018-04-23T08:43:34.200Z,1012.86
2018-04-23T08:44:43.039Z,1012.85
2018-04-23T08:45:52.150Z,1012.89
2018-04-23T08:47:00.985Z,1012.94
2018-04-23T08:48:10.372Z,1012.98
2018-04-23T08:49:19.597Z,1013
2018-04-23T08:50:28.771Z,1012.93
2018-04-23T08:51:37.544Z,1013.01
2018-04-23T08:52:46.381Z,1012.95
2018-04-23T08:53:55.644Z,1013.02
2018-04-23T08:55:04.481Z,1013.01
2018-04-23T08:56:13.868Z,1013.1
2018-04-23T08:57:22.704Z,1013.03
2018-04-23T08:58:31.542Z,1013.15
2018-04-23T08:59:40.379Z,1013.12
2018-04-23T09:00:49.218Z,1013.12
2018-04-23T09:01:58.053Z,1013.08
2018-04-23T09:03:07.172Z,1013.16
2018-04-23T09:04:16.008Z,1013.13
2018-04-23T09:05:25.096Z,1013.2
2018-04-23T09:06:33.934Z,1013.13
2018-04-23T09:07:42.772Z,1013.22
2018-04-23T09:08:51.886Z,1013.15
2018-04-23T09:10:00.721Z,1013.22
2018-04-23T09:11:09.612Z,1013.21
2018-04-23T09:12:18.448Z,1013.32
2018-04-23T09:13:27.559Z,1013.22
2018-04-23T09:14:36.395Z,1013.36
2018-04-23T09:15:45.234Z,1013.17
2018-04-23T09:16:54.173Z,1013.33
2018-04-23T09:18:03.014Z,1013.22
2018-04-23T09:19:11.845Z,1013.21
2018-04-23T09:20:20.681Z,1013.27
2018-04-23T09:21:29.791Z,1013.17
2018-04-23T09:22:39.056Z,1013.28
2018-04-23T09:23:47.893Z,1013.3
2018-04-23T09:24:57.005Z,1013.15
2018-04-23T09:26:05.841Z,1013.22
2018-04-23T09:27:14.689Z,1013.18
2018-04-23T09:28:23.868Z,1013.3
2018-04-23T09:29:32.982Z,1013.24
2018-04-23T09:30:42.072Z,1013.23
2018-04-23T09:31:50.913Z,1013.27
2018-04-23T09:33:00.023Z,1013.28
2018-04-23T09:34:08.863Z,1013.29
2018-04-23T09:35:17.698Z,1013.26
2018-04-23T09:36:26.535Z,1013.24
2018-04-23T09:37:35.651Z,1013.31
2018-04-23T09:38:44.489Z,1013.34
2018-04-23T09:39:53.702Z,1013.37
2018-04-23T09:41:02.541Z,1013.39
2018-04-23T09:42:11.378Z,1013.35
2018-04-23T09:43:20.215Z,1013.36
2018-04-23T09:44:29.108Z,1013.36
2018-04-23T09:45:37.988Z,1013.44
2018-04-23T09:46:46.825Z,1013.35
2018-04-23T09:47:55.660Z,1013.37
2018-04-23T09:49:04.497Z,1013.38
2018-04-23T09:50:13.334Z,1013.45
2018-04-23T09:51:22.448Z,1013.47
2018-04-23T09:52:31.284Z,1013.46
2018-04-23T09:53:40.121Z,1013.55
2018-04-23T09:54:48.959Z,1013.5
2018-04-23T09:55:57.796Z,1013.53
2018-04-23T09:57:06.681Z,1013.48
2018-04-23T09:58:15.518Z,1013.63
2018-04-23T09:59:24.361Z,1013.49
2018-04-23T10:00:33.203Z,1013.53
2018-04-23T10:01:42.304Z,1013.52
2018-04-23T10:02:51.565Z,1013.55
2018-04-23T10:04:00.679Z,1013.69
2018-04-23T10:05:09.516Z,1013.58
2018-04-23T10:06:18.353Z,1013.5
2018-04-23T10:07:27.188Z,1013.49
2018-04-23T10:08:36.128Z,1013.61
2018-04-23T10:09:44.968Z,1013.61
2018-04-23T10:10:54.083Z,1013.63
2018-04-23T10:12:02.923Z,1013.6
2018-04-23T10:13:12.130Z,1013.68
2018-04-23T10:14:21.270Z,1013.66
2018-04-23T10:15:30.451Z,1013.73
2018-04-23T10:16:39.846Z,1013.66
2018-04-23T10:17:48.681Z,1013.7
2018-04-23T10:18:57.520Z,1013.61
2018-04-23T10:20:06.359Z,1013.75
2018-04-23T10:21:15.199Z,1013.59
2018-04-23T10:22:24.037Z,1013.66
2018-04-23T10:23:33.148Z,1013.61
2018-04-23T10:24:41.987Z,1013.64
2018-04-23T10:25:50.832Z,1013.61
2018-04-23T10:26:59.943Z,1013.66
2018-04-23T10:28:08.788Z,1013.66
2018-04-23T10:29:17.621Z,1013.7
2018-04-23T10:30:26.461Z,1013.7
2018-04-23T10:31:35.400Z,1013.75
2018-04-23T10:32:44.512Z,1013.76
2018-04-23T10:33:53.624Z,1013.8
2018-04-23T10:35:02.737Z,1013.82
2018-04-23T10:36:11.851Z,1013.85
2018-04-23T10:37:20.688Z,1013.86
2018-04-23T10:38:30.080Z,1013.92
2018-04-23T10:39:38.914Z,1013.73
2018-04-23T10:40:47.752Z,1013.8
2018-04-23T10:41:56.588Z,1013.71
2018-04-23T10:43:05.424Z,1013.72
2018-04-23T10:44:14.261Z,1013.76
2018-04-23T10:45:23.105Z,1013.7
2018-04-23T10:46:32.256Z,1013.72
2018-04-23T10:47:41.097Z,1013.76
2018-04-23T10:48:49.933Z,1013.88
2018-04-23T10:49:58.768Z,1013.78
2018-04-23T10:51:07.703Z,1013.73
2018-04-23T10:52:16.441Z,1013.91
2018-04-23T10:53:25.553Z,1013.96
2018-04-23T10:54:34.390Z,1013.76
2018-04-23T10:55:43.228Z,1013.99
2018-04-23T10:56:52.346Z,1013.79
2018-04-23T10:58:01.185Z,1013.81
2018-04-23T10:59:10.023Z,1013.84
2018-04-23T11:00:18.959Z,1013.83
2018-04-23T11:01:27.795Z,1013.95
2018-04-23T11:02:36.632Z,1013.9
2018-04-23T11:03:45.750Z,1013.95
2018-04-23T11:04:54.862Z,1013.99
2018-04-23T11:06:03.697Z,1013.91
2018-04-23T11:07:12.534Z,1013.96
2018-04-23T11:08:21.650Z,1014.07
2018-04-23T11:09:30.482Z,1014.03
2018-04-23T11:10:39.316Z,1014.04
2018-04-23T11:11:48.352Z,1014
2018-04-23T11:12:57.188Z,1014
2018-04-23T11:14:06.304Z,1014.08
2018-04-23T11:15:15.142Z,1014.07
2018-04-23T11:16:23.980Z,1014.07
2018-04-23T11:17:32.918Z,1014.24
2018-04-23T11:18:41.755Z,1014.05
2018-04-23T11:19:50.590Z,1014.1
2018-04-23T11:20:59.708Z,1014
2018-04-23T11:22:08.544Z,1014.04
2018-04-23T11:23:17.707Z,1014.05
2018-04-23T11:24:26.544Z,1014.07
2018-04-23T11:25:35.655Z,1014.04
2018-04-23T11:26:44.493Z,1014
2018-04-23T11:27:53.329Z,1014.06
2018-04-23T11:29:02.447Z,1014.02
2018-04-23T11:30:11.285Z,1014.01
2018-04-23T11:31:20.121Z,1013.99
2018-04-23T11:32:29.290Z,1014.02
2018-04-23T11:33:38.076Z,1014.06
2018-04-23T11:34:47.388Z,1014.02
2018-04-23T11:35:56.502Z,1014.02
2018-04-23T11:37:05.339Z,1014.01
2018-04-23T11:38:14.176Z,1014.01
2018-04-23T11:39:23.015Z,1014.03
2018-04-23T11:40:32.357Z,1014
2018-04-23T11:41:41.472Z,1014.01
2018-04-23T11:42:50.589Z,1013.96
2018-04-23T11:43:59.425Z,1013.98
2018-04-23T11:45:08.333Z,1013.93
2018-04-23T11:46:17.151Z,1013.99
2018-04-23T11:47:25.992Z,1014.1
2018-04-23T11:48:35.144Z,1014.01
2018-04-23T11:49:43.987Z,1013.94
2018-04-23T11:50:53.100Z,1014.07
2018-04-23T11:52:01.993Z,1014.11
2018-04-23T11:53:10.887Z,1014.12
2018-04-23T11:54:20.003Z,1014.04
2018-04-23T11:55:28.845Z,1014.05
2018-04-23T11:56:37.965Z,1014.12
2018-04-23T11:57:46.856Z,1014.09
2018-04-23T11:58:55.972Z,1014.06
2018-04-23T12:00:04.857Z,1014.18
2018-04-23T12:01:13.702Z,1014.15
2018-04-23T12:02:22.667Z,1014.16
2018-04-23T12:03:31.554Z,1014.15
2018-04-23T12:04:40.394Z,1014.11
2018-04-23T12:05:49.787Z,1014.09
2018-04-23T12:06:58.898Z,1014.15
2018-04-23T12:08:07.790Z,1014.08
2018-04-23T12:09:16.831Z,1014.13
2018-04-23T12:10:25.971Z,1014.17
2018-04-23T12:11:35.112Z,1014.27
2018-04-23T12:12:43.951Z,1014.18
2018-04-23T12:13:53.074Z,1014.16
2018-04-23T12:15:02.294Z,1014.19
2018-04-23T12:16:11.209Z,1014.15
2018-04-23T12:17:20.667Z,1014.23
2018-04-23T12:18:29.882Z,1014.22
2018-04-23T12:19:38.719Z,1014.09
2018-04-23T12:20:47.863Z,1014.28
2018-04-23T12:21:56.707Z,1014.2
2018-04-23T12:23:05.576Z,1014.18
2018-04-23T12:24:14.830Z,1014.35
2018-04-23T12:25:23.713Z,1014.4
2018-04-23T12:26:32.656Z,1014.35
2018-04-23T12:27:41.586Z,1014.35
2018-04-23T12:28:50.437Z,1014.29
2018-04-23T12:29:59.300Z,1014.3
2018-04-23T12:31:08.144Z,1014.26
2018-04-23T12:32:17.039Z,1014.29
2018-04-23T12:33:25.884Z,1014.34
2018-04-23T12:34:35.000Z,1014.23
2018-04-23T12:35:43.852Z,1014.22
2018-04-23T12:36:52.975Z,1014.25
2018-04-23T12:38:01.820Z,1014.27
2018-04-23T12:39:10.666Z,1014.28
2018-04-23T12:40:19.503Z,1014.22
2018-04-23T12:41:28.349Z,1014.23
2018-04-23T12:42:37.293Z,1014.21
2018-04-23T12:43:46.136Z,1014.29
2018-04-23T12:44:54.981Z,1014.29
2018-04-23T12:46:03.958Z,1014.32
2018-04-23T12:47:12.672Z,1014.25
2018-04-23T12:48:21.790Z,1014.27
2018-04-23T12:49:30.633Z,1014.27
2018-04-23T12:50:39.478Z,1014.3
2018-04-23T12:51:48.325Z,1014.26
2018-04-23T12:52:57.171Z,1014.2
2018-04-23T12:54:06.015Z,1014.27
2018-04-23T12:55:14.863Z,1014.16
2018-04-23T12:56:23.708Z,1014.21
2018-04-23T12:57:32.560Z,1014.22
2018-04-23T12:58:41.957Z,1014.21
2018-04-23T12:59:51.076Z,1014.19
2018-04-23T13:00:59.923Z,1014.25
2018-04-23T13:02:08.780Z,1014.21
2018-04-23T13:03:17.772Z,1014.21
2018-04-23T13:04:26.674Z,1014.17
2018-04-23T13:05:35.461Z,1014.17
2018-04-23T13:06:44.304Z,1014.22
2018-04-23T13:07:53.150Z,1014.17
2018-04-23T13:09:02.093Z,1014.3
2018-04-23T13:10:10.936Z,1014.24
2018-04-23T13:11:19.776Z,1014.31
2018-04-23T13:12:28.620Z,1014.28
2018-04-23T13:13:37.461Z,1014.25
2018-04-23T13:14:46.304Z,1014.19
2018-04-23T13:15:55.148Z,1014.21
2018-04-23T13:17:03.994Z,1014.18
2018-04-23T13:18:12.832Z,1014.13
2018-04-23T13:19:21.958Z,1014.12
2018-04-23T13:20:30.900Z,1014.09
2018-04-23T13:21:39.742Z,1014.14
2018-04-23T13:22:48.581Z,1014.07
2018-04-23T13:23:57.722Z,1014.13
2018-04-23T13:25:06.543Z,1014.15
2018-04-23T13:26:15.760Z,1014.13
2018-04-23T13:27:24.601Z,1014.15
2018-04-23T13:28:33.721Z,1014.22
2018-04-23T13:29:42.838Z,1014.18
2018-04-23T13:30:52.052Z,1014.26
2018-04-23T13:32:00.943Z,1014.2
2018-04-23T13:33:10.058Z,1014.25
2018-04-23T13:34:19.454Z,1014.26
2018-04-23T13:35:28.317Z,1014.21
2018-04-23T13:36:37.433Z,1014.26
2018-04-23T13:37:47.418Z,1014.28
2018-04-23T13:38:57.088Z,1014.27
2018-04-23T13:40:05.937Z,1014.4
2018-04-23T13:41:14.776Z,1014.41
2018-04-23T13:42:23.620Z,1014.27
2018-04-23T13:43:33.107Z,1014.43
2018-04-23T13:44:42.231Z,1014.45
2018-04-23T13:45:51.362Z,1014.5
2018-04-23T13:47:00.489Z,1014.35
2018-04-23T13:48:09.333Z,1014.23
2018-04-23T13:49:18.194Z,1014.28
2018-04-23T13:50:27.039Z,1014.09
2018-04-23T13:51:35.892Z,1014.09
2018-04-23T13:52:44.750Z,1014.12
2018-04-23T13:53:53.868Z,1014.18
2018-04-23T13:55:02.910Z,1014.07
2018-04-23T13:56:11.784Z,1014.12
2018-04-23T13:57:20.596Z,1014.1